Terminal Aerodrome Forecast
Issued by NWS Cheyenne, WY

Home | Current Version | Previous Version | Text Only | Print | Product List | Glossary On
Versions: 1 2 3 4 5 6 7 8 9 10 11 12 13 14 15 16 17 18 19 20 21 22 23 24 25 26 27 28 29 30 31 32 33 34 35 36 37 38 39 40 41 42 43 44 45 46 47 48 49 50
533
FTUS45 KCYS 291249 AAA
TAFCYS
TAF AMD
KCYS 291249Z 2913/3012 12011KT P6SM OVC003
      TEMPO 2913/2914 1/4SM FG
     FM291500 11011KT 1SM -SN OVC002
     FM300100 01009KT 2SM -SN OVC005=

USA.gov is the U.S. government's official web portal to all federal, state and local government web resources and services.